N410HA KPHP-KRAP
Flight info
| Callsign | N410HA |
|---|---|
| Flight time | 0h 31m |
| Altitude | 6500 |
| Route | BADLANDS |
| Aircraft | PA31/L-VGD/C |
Departure
| Time | 2026-04-20 19:54 |
|---|---|
| Airport | Philip Airport (KPHP) |
Arrival
| Time | 2026-04-20 20:26 |
|---|---|
| Airport | Rapid City Regional Airport (KRAP) |
| Time | Latitude | Longitude | Altitude | Speed | Heading |
|---|---|---|---|---|---|
| 2026-04-20 19:40 | 44.05178 | -101.60045 | 2206 ft | 0 kts | 338° |
| 2026-04-20 19:49 | 44.05183 | -101.60053 | 2206 ft | 2 kts | 298° |
| 2026-04-20 19:49 | 44.05188 | -101.60071 | 2206 ft | 0 kts | 276° |
| 2026-04-20 19:49 | 44.05188 | -101.60090 | 2206 ft | 6 kts | 265° |
| 2026-04-20 19:49 | 44.05176 | -101.60140 | 2206 ft | 4 kts | 233° |
| 2026-04-20 19:50 | 44.05154 | -101.60167 | 2206 ft | 8 kts | 218° |
| 2026-04-20 19:50 | 44.05080 | -101.60251 | 2204 ft | 13 kts | 219° |
| 2026-04-20 19:50 | 44.05020 | -101.60316 | 2203 ft | 9 kts | 217° |
| 2026-04-20 19:50 | 44.04971 | -101.60300 | 2202 ft | 7 kts | 129° |
| 2026-04-20 19:51 | 44.04940 | -101.60244 | 2201 ft | 7 kts | 127° |
| 2026-04-20 19:51 | 44.04888 | -101.60162 | 2200 ft | 16 kts | 129° |
| 2026-04-20 19:51 | 44.04800 | -101.59999 | 2198 ft | 23 kts | 127° |
| 2026-04-20 19:51 | 44.04704 | -101.59831 | 2194 ft | 20 kts | 129° |
| 2026-04-20 19:52 | 44.04622 | -101.59686 | 2191 ft | 17 kts | 129° |
| 2026-04-20 19:52 | 44.04547 | -101.59554 | 2186 ft | 17 kts | 128° |
| 2026-04-20 19:52 | 44.04482 | -101.59433 | 2182 ft | 14 kts | 112° |
| 2026-04-20 19:52 | 44.04482 | -101.59383 | 2181 ft | 0 kts | 72° |
| 2026-04-20 19:53 | 44.04467 | -101.59396 | 2180 ft | 7 kts | 267° |
| 2026-04-20 19:53 | 44.04480 | -101.59439 | 2182 ft | 6 kts | 306° |
| 2026-04-20 19:53 | 44.04645 | -101.59734 | 2192 ft | 70 kts | 308° |
| 2026-04-20 19:53 | 44.05057 | -101.60438 | 2267 ft | 107 kts | 310° |
| 2026-04-20 19:54 | 44.05632 | -101.61239 | 2521 ft | 123 kts | 320° |
| 2026-04-20 19:54 | 44.06257 | -101.62247 | 2601 ft | 149 kts | 306° |
| 2026-04-20 19:54 | 44.06901 | -101.63471 | 2818 ft | 158 kts | 306° |
| 2026-04-20 19:54 | 44.07556 | -101.64716 | 3082 ft | 161 kts | 306° |
| 2026-04-20 19:55 | 44.08136 | -101.66035 | 3325 ft | 163 kts | 286° |
| 2026-04-20 19:55 | 44.08002 | -101.67568 | 3606 ft | 163 kts | 242° |
| 2026-04-20 19:55 | 44.07143 | -101.68578 | 3927 ft | 163 kts | 211° |
| 2026-04-20 19:55 | 44.06087 | -101.69140 | 4251 ft | 163 kts | 198° |
| 2026-04-20 19:56 | 44.05362 | -101.69421 | 4470 ft | 162 kts | 198° |
| 2026-04-20 19:56 | 44.03924 | -101.69968 | 4908 ft | 161 kts | 198° |
| 2026-04-20 19:56 | 44.02913 | -101.70594 | 5248 ft | 157 kts | 223° |
| 2026-04-20 19:56 | 44.02132 | -101.71637 | 5582 ft | 156 kts | 226° |
| 2026-04-20 19:57 | 44.01361 | -101.72686 | 5912 ft | 157 kts | 227° |
| 2026-04-20 19:57 | 44.00578 | -101.73755 | 6245 ft | 157 kts | 227° |
| 2026-04-20 19:57 | 43.99807 | -101.74810 | 6574 ft | 157 kts | 227° |
| 2026-04-20 19:57 | 43.99028 | -101.75877 | 6907 ft | 157 kts | 227° |
| 2026-04-20 19:58 | 43.98259 | -101.76933 | 7238 ft | 157 kts | 227° |
| 2026-04-20 19:58 | 43.97489 | -101.77994 | 7571 ft | 157 kts | 227° |
| 2026-04-20 19:58 | 43.96714 | -101.79060 | 7903 ft | 157 kts | 228° |
| 2026-04-20 19:58 | 43.95940 | -101.80125 | 8232 ft | 157 kts | 228° |
| 2026-04-20 19:59 | 43.95170 | -101.81187 | 8561 ft | 156 kts | 228° |
| 2026-04-20 19:59 | 43.94373 | -101.82290 | 8590 ft | 176 kts | 228° |
| 2026-04-20 19:59 | 43.93462 | -101.83547 | 8488 ft | 193 kts | 228° |
| 2026-04-20 19:59 | 43.92488 | -101.84888 | 8512 ft | 199 kts | 227° |
| 2026-04-20 20:00 | 43.91498 | -101.86249 | 8509 ft | 203 kts | 227° |
| 2026-04-20 20:00 | 43.90476 | -101.87654 | 8515 ft | 206 kts | 227° |
| 2026-04-20 20:00 | 43.89467 | -101.89037 | 8515 ft | 204 kts | 227° |
| 2026-04-20 20:00 | 43.88457 | -101.90414 | 8513 ft | 204 kts | 227° |
| 2026-04-20 20:01 | 43.87434 | -101.91811 | 8510 ft | 204 kts | 227° |
| 2026-04-20 20:01 | 43.86425 | -101.93190 | 8511 ft | 203 kts | 227° |
| 2026-04-20 20:01 | 43.85421 | -101.94566 | 8513 ft | 203 kts | 227° |
| 2026-04-20 20:01 | 43.84409 | -101.95951 | 8511 ft | 203 kts | 227° |
| 2026-04-20 20:02 | 43.83414 | -101.97315 | 8513 ft | 201 kts | 227° |
| 2026-04-20 20:02 | 43.82420 | -101.98676 | 8505 ft | 200 kts | 227° |
| 2026-04-20 20:02 | 43.81423 | -102.00040 | 8502 ft | 199 kts | 228° |
| 2026-04-20 20:02 | 43.80438 | -102.01390 | 8504 ft | 199 kts | 227° |
| 2026-04-20 20:03 | 43.79454 | -102.02737 | 8508 ft | 198 kts | 228° |
| 2026-04-20 20:03 | 43.78482 | -102.04068 | 8506 ft | 197 kts | 228° |
| 2026-04-20 20:03 | 43.77492 | -102.05423 | 8514 ft | 198 kts | 228° |
| 2026-04-20 20:03 | 43.76522 | -102.06750 | 8504 ft | 198 kts | 227° |
| 2026-04-20 20:04 | 43.75536 | -102.08099 | 8504 ft | 198 kts | 227° |
| 2026-04-20 20:04 | 43.74556 | -102.09438 | 8513 ft | 197 kts | 228° |
| 2026-04-20 20:04 | 43.73588 | -102.10758 | 8521 ft | 196 kts | 228° |
| 2026-04-20 20:04 | 43.72599 | -102.12109 | 8527 ft | 196 kts | 228° |
| 2026-04-20 20:05 | 43.71618 | -102.13447 | 8530 ft | 196 kts | 228° |
| 2026-04-20 20:05 | 43.70636 | -102.14786 | 8528 ft | 196 kts | 227° |
| 2026-04-20 20:05 | 43.69659 | -102.16117 | 8529 ft | 196 kts | 228° |
| 2026-04-20 20:05 | 43.68688 | -102.17440 | 8528 ft | 197 kts | 228° |
| 2026-04-20 20:06 | 43.67716 | -102.18765 | 8525 ft | 197 kts | 228° |
| 2026-04-20 20:06 | 43.66730 | -102.20104 | 8531 ft | 197 kts | 228° |
| 2026-04-20 20:06 | 43.65758 | -102.21427 | 8530 ft | 197 kts | 229° |
| 2026-04-20 20:06 | 43.64787 | -102.22750 | 8532 ft | 197 kts | 228° |
| 2026-04-20 20:07 | 43.63804 | -102.24087 | 8538 ft | 197 kts | 229° |
| 2026-04-20 20:07 | 43.62836 | -102.25402 | 8538 ft | 197 kts | 229° |
| 2026-04-20 20:07 | 43.61860 | -102.26726 | 8541 ft | 196 kts | 229° |
| 2026-04-20 20:07 | 43.60878 | -102.28061 | 8546 ft | 197 kts | 229° |
| 2026-04-20 20:08 | 43.59904 | -102.29382 | 8542 ft | 197 kts | 228° |
| 2026-04-20 20:08 | 43.58926 | -102.30707 | 8544 ft | 197 kts | 228° |
| 2026-04-20 20:08 | 43.57789 | -102.31770 | 8543 ft | 201 kts | 208° |
| 2026-04-20 20:08 | 43.56406 | -102.32195 | 8546 ft | 205 kts | 194° |
| 2026-04-20 20:09 | 43.55075 | -102.32815 | 8542 ft | 199 kts | 215° |
| 2026-04-20 20:09 | 43.54077 | -102.34100 | 8533 ft | 193 kts | 243° |
| 2026-04-20 20:09 | 43.53554 | -102.35784 | 8534 ft | 192 kts | 249° |
| 2026-04-20 20:09 | 43.53285 | -102.37526 | 8532 ft | 188 kts | 280° |
| 2026-04-20 20:10 | 43.53957 | -102.39030 | 8550 ft | 189 kts | 311° |
| 2026-04-20 20:10 | 43.54995 | -102.40200 | 8548 ft | 192 kts | 324° |
| 2026-04-20 20:10 | 43.56173 | -102.41085 | 8544 ft | 194 kts | 331° |
| 2026-04-20 20:10 | 43.57402 | -102.41876 | 8542 ft | 195 kts | 332° |
| 2026-04-20 20:11 | 43.58675 | -102.42568 | 8539 ft | 197 kts | 341° |
| 2026-04-20 20:11 | 43.60023 | -102.43097 | 8532 ft | 197 kts | 340° |
| 2026-04-20 20:11 | 43.61287 | -102.43847 | 8529 ft | 194 kts | 328° |
| 2026-04-20 20:11 | 43.62425 | -102.44846 | 8534 ft | 193 kts | 322° |
| 2026-04-20 20:12 | 43.63485 | -102.45988 | 8535 ft | 192 kts | 317° |
| 2026-04-20 20:12 | 43.64485 | -102.47205 | 8537 ft | 192 kts | 315° |
| 2026-04-20 20:12 | 43.65456 | -102.48473 | 8532 ft | 193 kts | 314° |
| 2026-04-20 20:13 | 43.67352 | -102.51093 | 8528 ft | 192 kts | 313° |
| 2026-04-20 20:13 | 43.68287 | -102.52423 | 8527 ft | 192 kts | 313° |
| 2026-04-20 20:13 | 43.69214 | -102.53752 | 8526 ft | 192 kts | 312° |
| 2026-04-20 20:13 | 43.70135 | -102.55085 | 8523 ft | 192 kts | 312° |
| 2026-04-20 20:14 | 43.71059 | -102.56427 | 8517 ft | 192 kts | 312° |
| 2026-04-20 20:14 | 43.71986 | -102.57788 | 8516 ft | 192 kts | 311° |
| 2026-04-20 20:14 | 43.72905 | -102.59141 | 8523 ft | 191 kts | 312° |
| 2026-04-20 20:14 | 43.73811 | -102.60468 | 8522 ft | 192 kts | 312° |
| 2026-04-20 20:15 | 43.74735 | -102.61819 | 8518 ft | 192 kts | 312° |
| 2026-04-20 20:15 | 43.75654 | -102.63161 | 8521 ft | 192 kts | 312° |
| 2026-04-20 20:15 | 43.76564 | -102.64490 | 8523 ft | 192 kts | 312° |
| 2026-04-20 20:15 | 43.77494 | -102.65849 | 8525 ft | 192 kts | 311° |
| 2026-04-20 20:16 | 43.78409 | -102.67188 | 8530 ft | 192 kts | 312° |
| 2026-04-20 20:16 | 43.79329 | -102.68534 | 8528 ft | 192 kts | 312° |
| 2026-04-20 20:16 | 43.80253 | -102.69886 | 8527 ft | 193 kts | 311° |
| 2026-04-20 20:16 | 43.81176 | -102.71239 | 8532 ft | 192 kts | 312° |
| 2026-04-20 20:17 | 43.82094 | -102.72582 | 8533 ft | 192 kts | 312° |
| 2026-04-20 20:17 | 43.83013 | -102.73929 | 8535 ft | 192 kts | 312° |
| 2026-04-20 20:17 | 43.83944 | -102.75294 | 8539 ft | 192 kts | 312° |
| 2026-04-20 20:17 | 43.84873 | -102.76658 | 8429 ft | 196 kts | 312° |
| 2026-04-20 20:18 | 43.85800 | -102.78018 | 8254 ft | 192 kts | 312° |
| 2026-04-20 20:18 | 43.86711 | -102.79356 | 8086 ft | 189 kts | 313° |
| 2026-04-20 20:18 | 43.87611 | -102.80679 | 7910 ft | 187 kts | 313° |
| 2026-04-20 20:18 | 43.88422 | -102.82017 | 7755 ft | 178 kts | 304° |
| 2026-04-20 20:19 | 43.89019 | -102.83469 | 7600 ft | 163 kts | 298° |
| 2026-04-20 20:19 | 43.89519 | -102.84758 | 7482 ft | 149 kts | 301° |
| 2026-04-20 20:19 | 43.90052 | -102.86060 | 7217 ft | 155 kts | 299° |
| 2026-04-20 20:19 | 43.90517 | -102.87350 | 7169 ft | 142 kts | 298° |
| 2026-04-20 20:20 | 43.90970 | -102.88546 | 6835 ft | 146 kts | 302° |
| 2026-04-20 20:20 | 43.91455 | -102.89804 | 6571 ft | 146 kts | 299° |
| 2026-04-20 20:20 | 43.91891 | -102.91000 | 6465 ft | 136 kts | 298° |
| 2026-04-20 20:20 | 43.92271 | -102.92242 | 6139 ft | 144 kts | 296° |
| 2026-04-20 20:21 | 43.92649 | -102.93483 | 5940 ft | 136 kts | 298° |
| 2026-04-20 20:21 | 43.93067 | -102.94636 | 5638 ft | 128 kts | 305° |
| 2026-04-20 20:21 | 43.93582 | -102.95621 | 5389 ft | 127 kts | 311° |
| 2026-04-20 20:21 | 43.94122 | -102.96571 | 5172 ft | 124 kts | 315° |
| 2026-04-20 20:22 | 43.94727 | -102.97432 | 4902 ft | 125 kts | 319° |
| 2026-04-20 20:22 | 43.95330 | -102.98280 | 4702 ft | 123 kts | 319° |
| 2026-04-20 20:22 | 43.95947 | -102.99097 | 4528 ft | 125 kts | 320° |
| 2026-04-20 20:22 | 43.96576 | -102.99869 | 4303 ft | 119 kts | 325° |
| 2026-04-20 20:23 | 43.97252 | -103.00513 | 4106 ft | 115 kts | 331° |
| 2026-04-20 20:23 | 43.97931 | -103.01009 | 3985 ft | 110 kts | 335° |
| 2026-04-20 20:23 | 43.98601 | -103.01498 | 3939 ft | 103 kts | 334° |
| 2026-04-20 20:23 | 43.99181 | -103.01961 | 3836 ft | 92 kts | 334° |
| 2026-04-20 20:24 | 43.99748 | -103.02390 | 3771 ft | 92 kts | 337° |
| 2026-04-20 20:24 | 44.00314 | -103.02773 | 3664 ft | 90 kts | 338° |
| 2026-04-20 20:24 | 44.00871 | -103.03165 | 3581 ft | 88 kts | 334° |
| 2026-04-20 20:24 | 44.01403 | -103.03574 | 3485 ft | 88 kts | 337° |
| 2026-04-20 20:25 | 44.01959 | -103.03959 | 3388 ft | 89 kts | 336° |
| 2026-04-20 20:25 | 44.02504 | -103.04364 | 3276 ft | 90 kts | 337° |
| 2026-04-20 20:25 | 44.03052 | -103.04776 | 3199 ft | 88 kts | 338° |
| 2026-04-20 20:25 | 44.03591 | -103.05173 | 3130 ft | 83 kts | 335° |
| 2026-04-20 20:26 | 44.03949 | -103.05444 | 3147 ft | 17 kts | 315° |
| 2026-04-20 20:26 | 44.03944 | -103.05563 | 3152 ft | 9 kts | 252° |
| 2026-04-20 20:26 | 44.03953 | -103.05624 | 3154 ft | 6 kts | 314° |
| 2026-04-20 20:26 | 44.04022 | -103.05684 | 3157 ft | 14 kts | 331° |
| 2026-04-20 20:27 | 44.04097 | -103.05740 | 3158 ft | 9 kts | 333° |
| 2026-04-20 20:27 | 44.04166 | -103.05805 | 3160 ft | 18 kts | 296° |
| 2026-04-20 20:27 | 44.04128 | -103.05963 | 3160 ft | 15 kts | 291° |
| 2026-04-20 20:27 | 44.04097 | -103.06054 | 3158 ft | 9 kts | 237° |
| 2026-04-20 20:28 | 44.04086 | -103.06055 | 3158 ft | 0 kts | 111° |